createdAt,value
2018-05-26T00:02:02.096Z,5.75
2018-05-26T00:04:28.681Z,4.70
2018-05-26T00:06:55.597Z,6.57
2018-05-26T00:09:22.228Z,6.30
2018-05-26T00:11:48.839Z,5.50
2018-05-26T00:14:15.449Z,5.47
2018-05-26T00:16:42.041Z,6.40
2018-05-26T00:19:08.643Z,6.18
2018-05-26T00:21:35.241Z,8.23
2018-05-26T00:24:01.801Z,5.93
2018-05-26T00:26:28.377Z,5.60
2018-05-26T00:28:54.961Z,6.10
2018-05-26T00:31:21.926Z,6.70
2018-05-26T00:33:48.578Z,7.45
2018-05-26T00:36:15.197Z,7.12
2018-05-26T00:38:41.769Z,5.60
2018-05-26T00:41:08.753Z,5.20
2018-05-26T00:43:35.364Z,5.87
2018-05-26T00:46:02.293Z,6.15
2018-05-26T00:48:28.889Z,5.70
2018-05-26T00:50:55.432Z,5.97
2018-05-26T00:53:22.076Z,6.53
2018-05-26T00:55:48.814Z,6.37
2018-05-26T00:58:15.392Z,6.90
2018-05-26T01:00:42.009Z,5.03
2018-05-26T01:03:08.974Z,8.23
2018-05-26T01:05:35.932Z,6.30
2018-05-26T01:08:02.946Z,5.40
2018-05-26T01:10:29.501Z,5.62
2018-05-26T01:12:56.106Z,6.80
2018-05-26T01:15:22.677Z,5.80
2018-05-26T01:17:49.353Z,6.57
2018-05-26T01:20:16.339Z,6.50
2018-05-26T01:22:43.277Z,6.90
2018-05-26T01:25:09.878Z,8.30
2018-05-26T01:27:36.422Z,6.87
2018-05-26T01:30:03.050Z,6.80
2018-05-26T01:32:30.042Z,6.55
2018-05-26T01:34:56.598Z,7.82
2018-05-26T01:37:23.227Z,8.20
2018-05-26T01:39:49.838Z,10.45
2018-05-26T01:42:16.505Z,11.00
2018-05-26T01:44:43.113Z,10.27
2018-05-26T01:47:09.704Z,10.32
2018-05-26T01:49:36.285Z,8.43
2018-05-26T01:52:02.885Z,9.65
2018-05-26T01:54:29.852Z,9.10
2018-05-26T01:56:56.804Z,9.20
2018-05-26T01:59:23.756Z,8.55
2018-05-26T02:01:50.770Z,8.10
2018-05-26T02:04:17.386Z,8.80
2018-05-26T02:06:44.024Z,7.60
2018-05-26T02:09:10.613Z,6.70
2018-05-26T02:11:37.201Z,7.15
2018-05-26T02:14:03.793Z,7.60
2018-05-26T02:16:30.344Z,9.75
2018-05-26T02:18:56.928Z,6.53
2018-05-26T02:21:23.542Z,7.62
2018-05-26T02:23:50.179Z,8.13
2018-05-26T02:26:16.825Z,8.48
2018-05-26T02:28:43.402Z,8.55
2018-05-26T02:31:09.993Z,9.70
2018-05-26T02:33:36.957Z,8.40
2018-05-26T02:36:03.530Z,8.10
2018-05-26T02:38:30.112Z,9.18
2018-05-26T02:40:56.686Z,7.97
2018-05-26T02:43:23.744Z,6.80
2018-05-26T02:45:50.881Z,10.93
2018-05-26T02:48:18.089Z,9.95
2018-05-26T02:50:44.725Z,12.18
2018-05-26T02:53:11.650Z,10.10
2018-05-26T02:55:38.249Z,9.52
2018-05-26T02:58:04.824Z,10.55
2018-05-26T03:00:31.421Z,13.50
2018-05-26T03:02:58.384Z,12.75
2018-05-26T03:05:31.342Z,12.63
2018-05-26T03:08:04.012Z,14.90
2018-05-26T03:10:36.645Z,16.40
2018-05-26T03:13:09.356Z,15.93
2018-05-26T03:15:36.329Z,16.20
2018-05-26T03:18:11.533Z,16.37
2018-05-26T03:20:38.150Z,14.30
2018-05-26T03:23:04.741Z,16.25
2018-05-26T03:25:31.324Z,14.40
2018-05-26T03:27:57.921Z,14.75
2018-05-26T03:30:24.560Z,15.43
2018-05-26T03:32:51.195Z,13.30
2018-05-26T03:35:17.819Z,12.88
2018-05-26T03:37:44.413Z,13.13
2018-05-26T03:40:10.993Z,14.32
2018-05-26T03:42:37.939Z,14.45
2018-05-26T03:45:04.933Z,13.65
2018-05-26T03:47:31.484Z,13.77
2018-05-26T03:49:58.071Z,14.73
2018-05-26T03:52:24.721Z,14.10
2018-05-26T03:58:20.893Z,10.48
2018-05-26T04:00:47.582Z,11.88
2018-05-26T04:03:14.212Z,12.00
2018-05-26T04:05:40.769Z,12.15
2018-05-26T04:08:07.401Z,12.05
2018-05-26T04:10:34.340Z,11.87
2018-05-26T04:13:00.929Z,12.60
2018-05-26T04:15:27.512Z,11.63
2018-05-26T04:17:54.097Z,13.70
2018-05-26T04:20:20.756Z,13.40
2018-05-26T04:22:47.355Z,11.00
2018-05-26T04:25:13.997Z,11.87
2018-05-26T04:27:40.628Z,11.32
2018-05-26T04:30:07.562Z,10.10
2018-05-26T04:32:34.532Z,12.75
2018-05-26T04:35:01.068Z,11.32
2018-05-26T04:37:27.646Z,11.57
2018-05-26T04:39:54.251Z,11.55
2018-05-26T04:42:20.865Z,9.00
2018-05-26T04:44:47.551Z,8.93
2018-05-26T04:47:14.120Z,10.80
2018-05-26T04:49:40.724Z,11.60
2018-05-26T04:52:07.337Z,12.80
2018-05-26T04:54:33.925Z,12.85
2018-05-26T04:57:00.496Z,10.43
2018-05-26T04:59:27.041Z,12.13
2018-05-26T05:01:53.661Z,8.77
2018-05-26T05:04:20.303Z,10.27
2018-05-26T05:06:46.892Z,12.60
2018-05-26T05:09:13.477Z,12.30
2018-05-26T05:11:40.399Z,13.43
2018-05-26T05:14:07.009Z,13.25
2018-05-26T05:16:33.593Z,11.98
2018-05-26T05:19:00.185Z,13.37
2018-05-26T05:21:26.780Z,12.55
2018-05-26T05:23:53.357Z,11.05
2018-05-26T05:26:20.402Z,10.70
2018-05-26T05:28:47.086Z,11.20
2018-05-26T05:31:13.657Z,11.30
2018-05-26T05:33:40.269Z,11.43
2018-05-26T05:36:06.825Z,11.25
2018-05-26T05:38:33.425Z,10.50
2018-05-26T05:41:00.005Z,11.15
2018-05-26T05:43:26.917Z,10.90
2018-05-26T05:45:53.531Z,11.27
2018-05-26T05:48:20.173Z,10.70
2018-05-26T05:50:46.797Z,11.88
2018-05-26T05:53:13.806Z,12.48
2018-05-26T05:55:40.410Z,12.20
2018-05-26T05:58:07.004Z,10.73
2018-05-26T06:00:33.700Z,11.68
2018-05-26T06:03:00.290Z,11.65
2018-05-26T06:05:26.846Z,11.30
2018-05-26T06:07:53.453Z,11.35
2018-05-26T06:10:20.465Z,11.10
2018-05-26T06:12:47.057Z,9.75
2018-05-26T06:15:13.779Z,11.32
2018-05-26T06:17:40.452Z,10.83
2018-05-26T06:20:07.068Z,10.65
2018-05-26T06:22:33.713Z,10.57
2018-05-26T06:25:00.277Z,13.20
2018-05-26T06:27:26.876Z,10.70
2018-05-26T06:29:53.463Z,11.65
2018-05-26T06:32:20.133Z,10.90
2018-05-26T06:34:46.726Z,10.10
2018-05-26T06:37:13.310Z,10.25
2018-05-26T06:39:39.889Z,10.23
2018-05-26T06:42:06.457Z,10.50
2018-05-26T06:44:33.013Z,10.40
2018-05-26T06:46:59.603Z,10.70
2018-05-26T06:49:26.291Z,9.95
2018-05-26T06:51:53.362Z,9.50
2018-05-26T06:54:20.389Z,10.20
2018-05-26T06:56:46.998Z,9.60
2018-05-26T06:59:13.608Z,9.45
2018-05-26T07:01:40.569Z,8.95
2018-05-26T07:04:07.538Z,9.60
2018-05-26T07:06:34.129Z,9.82
2018-05-26T07:09:00.701Z,11.00
2018-05-26T07:11:27.293Z,10.63
2018-05-26T07:13:54.164Z,10.25
2018-05-26T07:16:20.817Z,9.02
2018-05-26T07:18:47.746Z,10.57
2018-05-26T07:21:14.626Z,10.45
2018-05-26T07:23:41.511Z,9.60
2018-05-26T07:26:08.405Z,10.48
2018-05-26T07:28:35.314Z,9.55
2018-05-26T07:31:02.195Z,8.90
2018-05-26T07:33:28.964Z,8.40
2018-05-26T07:35:55.751Z,23.60
2018-05-26T07:38:23.055Z,9.50
2018-05-26T07:40:49.980Z,10.30
2018-05-26T07:43:17.674Z,10.65
2018-05-26T07:45:44.241Z,11.38
2018-05-26T07:48:10.833Z,10.60
2018-05-26T07:50:37.448Z,9.38
2018-05-26T07:53:04.120Z,11.23
2018-05-26T07:55:30.686Z,11.70
2018-05-26T07:57:57.617Z,11.10
2018-05-26T08:00:24.251Z,11.02
2018-05-26T08:02:50.906Z,11.70
2018-05-26T08:05:17.515Z,12.95
2018-05-26T08:07:44.121Z,10.85
2018-05-26T08:10:10.685Z,11.77
2018-05-26T08:12:37.665Z,10.87
2018-05-26T08:15:04.277Z,11.88
2018-05-26T08:17:30.858Z,10.20
2018-05-26T08:19:57.440Z,10.40
2018-05-26T08:22:23.993Z,10.40
2018-05-26T08:24:50.665Z,10.90
2018-05-26T08:27:17.326Z,10.60
2018-05-26T08:29:43.935Z,10.68
2018-05-26T08:32:10.530Z,10.60
2018-05-26T08:34:37.469Z,10.10
2018-05-26T08:37:04.073Z,10.25
2018-05-26T08:39:30.657Z,9.80
2018-05-26T08:41:57.212Z,10.48
2018-05-26T08:44:23.822Z,10.20
2018-05-26T08:46:50.461Z,9.80
2018-05-26T08:49:17.068Z,10.00
2018-05-26T08:51:43.688Z,9.88
2018-05-26T08:54:10.540Z,9.63
2018-05-26T08:56:37.169Z,13.07
2018-05-26T08:59:03.728Z,11.70
2018-05-26T09:01:30.319Z,13.77
2018-05-26T09:03:57.285Z,11.45
2018-05-26T09:06:24.221Z,10.25
2018-05-26T09:08:50.849Z,12.18
2018-05-26T09:11:17.464Z,10.98
2018-05-26T09:13:44.643Z,12.23
2018-05-26T09:16:11.264Z,13.95
2018-05-26T09:18:37.863Z,13.02
2018-05-26T09:21:04.442Z,11.73
2018-05-26T09:23:31.373Z,13.13
2018-05-26T09:25:57.964Z,14.07
2018-05-26T09:28:24.939Z,13.30
2018-05-26T09:30:51.537Z,14.53
2018-05-26T09:33:18.172Z,15.25
2018-05-26T09:35:44.805Z,13.32
2018-05-26T09:38:11.377Z,13.20
2018-05-26T09:40:37.980Z,15.10
2018-05-26T09:43:04.549Z,14.18
2018-05-26T09:45:31.397Z,14.20
2018-05-26T09:47:58.312Z,15.90
2018-05-26T09:50:25.498Z,18.17
2018-05-26T09:52:52.392Z,14.87
2018-05-26T09:55:19.721Z,16.77
2018-05-26T09:57:46.631Z,17.83
2018-05-26T10:00:13.905Z,18.62
2018-05-26T10:02:41.074Z,16.90
2018-05-26T10:05:10.526Z,17.23
2018-05-26T10:07:38.296Z,16.25
2018-05-26T10:10:05.171Z,16.48
2018-05-26T10:12:32.057Z,17.45
2018-05-26T10:15:06.005Z,16.60
2018-05-26T10:17:32.652Z,15.65
2018-05-26T10:19:59.602Z,14.80
2018-05-26T10:22:26.513Z,14.50
2018-05-26T10:24:53.096Z,14.30
2018-05-26T10:27:20.138Z,14.60
2018-05-26T10:29:46.816Z,15.32
2018-05-26T10:32:13.459Z,14.50
2018-05-26T10:34:40.017Z,14.57
2018-05-26T10:37:07.069Z,14.82
2018-05-26T10:39:33.677Z,13.40
2018-05-26T10:42:00.275Z,14.03
2018-05-26T10:44:26.908Z,12.55
2018-05-26T10:46:53.877Z,12.88
2018-05-26T10:49:20.821Z,13.45
2018-05-26T10:51:47.806Z,10.90
2018-05-26T10:54:14.434Z,10.82
2018-05-26T10:56:41.381Z,10.55
2018-05-26T10:59:08.370Z,10.63
2018-05-26T11:01:34.930Z,11.10
2018-05-26T11:04:01.525Z,10.13
2018-05-26T11:06:36.069Z,8.90
2018-05-26T11:09:03.153Z,9.37
2018-05-26T11:11:29.770Z,8.65
2018-05-26T11:13:56.354Z,8.90
2018-05-26T11:16:23.082Z,8.50
2018-05-26T11:18:49.717Z,8.07
2018-05-26T11:21:16.309Z,8.00
2018-05-26T11:23:42.914Z,7.80
2018-05-26T11:26:09.506Z,7.13
2018-05-26T11:28:36.104Z,7.05
2018-05-26T11:31:02.817Z,7.07
2018-05-26T11:33:29.733Z,8.20
2018-05-26T11:35:56.696Z,6.43
2018-05-26T11:38:23.674Z,6.40
2018-05-26T11:40:50.297Z,5.80
2018-05-26T11:43:17.297Z,6.10
2018-05-26T11:45:43.903Z,6.07
2018-05-26T11:48:10.881Z,5.78
2018-05-26T11:50:37.459Z,5.10
2018-05-26T11:53:04.087Z,5.60
2018-05-26T11:55:30.701Z,4.95
2018-05-26T11:57:57.329Z,4.50
2018-05-26T12:00:23.946Z,5.28
2018-05-26T12:02:50.555Z,5.07
2018-05-26T12:05:17.577Z,4.80
2018-05-26T12:07:44.149Z,5.30
2018-05-26T12:10:10.741Z,5.78
2018-05-26T12:12:37.364Z,7.70
2018-05-26T12:15:03.941Z,4.82
2018-05-26T12:17:30.600Z,4.20
2018-05-26T12:19:57.128Z,4.72
2018-05-26T12:22:23.730Z,4.68
2018-05-26T12:24:50.369Z,5.65
2018-05-26T12:27:17.341Z,5.90
2018-05-26T12:29:44.317Z,6.78
2018-05-26T12:32:11.249Z,5.00
2018-05-26T12:34:37.868Z,4.12
2018-05-26T12:37:04.473Z,4.03
2018-05-26T12:39:31.394Z,5.32
2018-05-26T12:41:57.985Z,4.45
2018-05-26T12:44:24.548Z,4.07
2018-05-26T12:46:51.208Z,4.60
2018-05-26T12:49:17.865Z,3.50
2018-05-26T12:51:44.445Z,3.45
2018-05-26T12:54:11.038Z,3.90
2018-05-26T12:56:37.643Z,3.90
2018-05-26T12:59:04.242Z,5.57
2018-05-26T13:01:30.825Z,3.85
2018-05-26T13:03:57.389Z,3.90
2018-05-26T13:06:23.989Z,3.03
2018-05-26T13:08:50.678Z,3.90
2018-05-26T13:11:17.268Z,5.03
2018-05-26T13:13:43.853Z,3.28
2018-05-26T13:16:10.401Z,2.80
2018-05-26T13:18:36.998Z,2.97
2018-05-26T13:21:03.949Z,3.40
2018-05-26T13:23:30.909Z,2.75
2018-05-26T13:25:57.870Z,3.55
2018-05-26T13:28:24.837Z,4.43
2018-05-26T13:30:51.509Z,3.37
2018-05-26T13:33:18.191Z,3.62
2018-05-26T13:35:44.801Z,2.50
2018-05-26T13:38:11.361Z,2.90
2018-05-26T13:40:37.972Z,2.67
2018-05-26T13:43:04.959Z,2.30
2018-05-26T13:45:31.522Z,2.70
2018-05-26T13:47:58.114Z,2.50
2018-05-26T13:50:24.723Z,2.60
2018-05-26T13:52:51.344Z,2.20
2018-05-26T13:55:18.059Z,2.80
2018-05-26T13:57:44.653Z,2.10
2018-05-26T14:00:11.283Z,4.47
2018-05-26T14:02:37.879Z,2.25
2018-05-26T14:05:04.564Z,2.20
2018-05-26T14:07:31.545Z,1.85
2018-05-26T14:09:58.101Z,3.20
2018-05-26T14:12:24.702Z,1.87
2018-05-26T14:14:51.342Z,2.40
2018-05-26T14:17:18.078Z,2.45
2018-05-26T14:19:44.680Z,3.17
2018-05-26T14:22:11.625Z,2.00
2018-05-26T14:24:38.625Z,2.00
2018-05-26T14:27:05.189Z,2.30
2018-05-26T14:29:31.785Z,5.30
2018-05-26T14:31:58.782Z,1.90
2018-05-26T14:34:25.360Z,1.90
2018-05-26T14:36:52.019Z,5.10
2018-05-26T14:39:18.677Z,2.37
2018-05-26T14:41:45.305Z,2.60
2018-05-26T14:44:11.919Z,3.03
2018-05-26T14:46:38.501Z,3.40
2018-05-26T14:49:05.145Z,2.35
2018-05-26T14:51:31.696Z,2.10
2018-05-26T14:53:58.297Z,2.50
2018-05-26T14:56:24.890Z,3.40
2018-05-26T14:58:51.571Z,1.92
2018-05-26T15:01:18.583Z,1.90
2018-05-26T15:03:45.173Z,2.10
2018-05-26T15:06:11.774Z,2.70
2018-05-26T15:08:38.370Z,1.90
2018-05-26T15:11:05.341Z,2.50
2018-05-26T15:13:32.302Z,2.00
2018-05-26T15:15:58.865Z,3.53
2018-05-26T15:18:25.466Z,1.90
2018-05-26T15:20:52.053Z,1.65
2018-05-26T15:23:18.757Z,2.30
2018-05-26T15:25:45.447Z,2.20
2018-05-26T15:28:12.032Z,1.77
2018-05-26T15:30:38.669Z,1.90
2018-05-26T15:33:05.237Z,1.70
2018-05-26T15:35:31.832Z,3.70
2018-05-26T15:37:58.797Z,3.30
2018-05-26T15:40:25.733Z,2.53
2018-05-26T15:42:52.398Z,2.40
2018-05-26T15:45:19.465Z,2.60
2018-05-26T15:47:46.089Z,3.03
2018-05-26T15:50:13.058Z,4.68
2018-05-26T15:52:39.992Z,2.78
2018-05-26T15:55:06.622Z,3.50
2018-05-26T15:57:33.228Z,3.12
2018-05-26T15:59:59.873Z,3.10
2018-05-26T16:02:26.809Z,3.10
2018-05-26T16:04:53.776Z,2.97
2018-05-26T16:07:20.818Z,3.50
2018-05-26T16:09:47.837Z,2.80
2018-05-26T16:12:14.413Z,3.10
2018-05-26T16:14:41.001Z,3.00
2018-05-26T16:17:07.581Z,3.30
2018-05-26T16:19:34.194Z,3.13
2018-05-26T16:22:00.785Z,3.20
2018-05-26T16:24:27.337Z,3.10
2018-05-26T16:26:53.972Z,2.75
2018-05-26T16:29:20.747Z,3.28
2018-05-26T16:31:47.393Z,3.08
2018-05-26T16:34:14.013Z,3.20
2018-05-26T16:36:40.569Z,3.37
2018-05-26T16:39:07.226Z,2.65
2018-05-26T16:41:33.814Z,3.33
2018-05-26T16:44:00.410Z,3.37
2018-05-26T16:46:26.957Z,3.05
2018-05-26T16:48:53.609Z,9.15
2018-05-26T16:51:20.315Z,3.17
2018-05-26T16:53:46.934Z,3.97
2018-05-26T16:56:13.541Z,4.20
2018-05-26T16:58:40.101Z,5.30
2018-05-26T17:01:06.811Z,4.30
2018-05-26T17:03:33.841Z,4.50
2018-05-26T17:06:00.489Z,4.25
2018-05-26T17:08:27.098Z,4.72
2018-05-26T17:10:53.698Z,4.72
2018-05-26T17:13:20.381Z,5.05
2018-05-26T17:15:47.016Z,5.20
2018-05-26T17:18:13.583Z,4.45
2018-05-26T17:20:40.172Z,5.00
2018-05-26T17:23:06.769Z,4.70
2018-05-26T17:25:33.362Z,5.85
2018-05-26T17:27:59.952Z,5.10
2018-05-26T17:30:26.886Z,5.70
2018-05-26T17:32:53.529Z,5.87
2018-05-26T17:35:20.138Z,5.60
2018-05-26T17:37:46.755Z,5.55
2018-05-26T17:40:13.374Z,5.53
2018-05-26T17:42:39.941Z,5.07
2018-05-26T17:45:06.555Z,4.65
2018-05-26T17:47:33.115Z,4.75
2018-05-26T17:49:59.714Z,4.20
2018-05-26T17:52:26.302Z,4.70
2018-05-26T17:54:52.898Z,4.93
2018-05-26T17:57:19.609Z,4.07
2018-05-26T17:59:46.189Z,3.90
2018-05-26T18:02:13.158Z,4.10
2018-05-26T18:04:40.121Z,4.35
2018-05-26T18:07:07.130Z,4.50
2018-05-26T18:09:33.732Z,4.87
2018-05-26T18:12:00.296Z,5.75
2018-05-26T18:14:26.896Z,4.95
2018-05-26T18:16:53.506Z,4.80
2018-05-26T18:19:20.135Z,5.00
2018-05-26T18:21:46.769Z,5.07
2018-05-26T18:24:13.377Z,5.35
2018-05-26T18:26:39.933Z,5.03
2018-05-26T18:29:06.589Z,4.70
2018-05-26T18:31:33.533Z,5.55
2018-05-26T18:34:00.128Z,4.70
2018-05-26T18:36:26.733Z,4.60
2018-05-26T18:38:53.317Z,5.75
2018-05-26T18:41:20.357Z,4.50
2018-05-26T18:43:47.370Z,4.70
2018-05-26T18:46:13.974Z,4.87
2018-05-26T18:48:40.971Z,6.20
2018-05-26T18:51:07.571Z,7.40
2018-05-26T18:53:34.537Z,4.82
2018-05-26T18:56:01.473Z,8.93
2018-05-26T18:58:28.074Z,5.33
2018-05-26T19:00:54.669Z,4.47
2018-05-26T19:03:21.281Z,6.95
2018-05-26T19:05:47.952Z,6.37
2018-05-26T19:08:14.557Z,5.87
2018-05-26T19:10:41.174Z,6.12
2018-05-26T19:13:08.173Z,5.10
2018-05-26T19:15:34.757Z,5.60
2018-05-26T19:18:01.353Z,5.30
2018-05-26T19:20:27.921Z,5.35
2018-05-26T19:22:54.560Z,4.68
2018-05-26T19:25:21.198Z,5.68
2018-05-26T19:27:47.841Z,7.70
2018-05-26T19:30:14.456Z,6.62
2018-05-26T19:32:41.026Z,6.37
2018-05-26T19:35:08.025Z,9.52
2018-05-26T19:37:34.579Z,7.37
2018-05-26T19:40:01.169Z,17.50
2018-05-26T19:42:27.769Z,21.92
2018-05-26T19:44:54.340Z,23.80
2018-05-26T19:47:21.000Z,19.33
2018-05-26T19:49:47.746Z,22.75
2018-05-26T19:52:14.729Z,17.70
2018-05-26T19:54:41.697Z,15.63
2018-05-26T19:57:08.665Z,14.02
2018-05-26T19:59:35.249Z,14.15
2018-05-26T20:02:01.812Z,13.65
2018-05-26T20:04:28.393Z,9.45
2018-05-26T20:06:55.445Z,8.07
2018-05-26T20:09:22.401Z,6.90
2018-05-26T20:11:49.489Z,6.78
2018-05-26T20:14:16.066Z,6.45
2018-05-26T20:16:43.070Z,6.10
2018-05-26T20:19:09.688Z,7.60
2018-05-26T20:21:36.641Z,9.40
2018-05-26T20:24:03.603Z,7.45
2018-05-26T20:26:30.546Z,6.90
2018-05-26T20:28:57.149Z,8.02
2018-05-26T20:31:24.069Z,9.77
2018-05-26T20:33:50.700Z,11.13
2018-05-26T20:36:17.293Z,10.10
2018-05-26T20:38:43.857Z,9.90
2018-05-26T20:41:10.458Z,8.38
2018-05-26T20:43:37.097Z,8.47
2018-05-26T20:46:03.689Z,7.60
2018-05-26T20:48:30.304Z,7.75
2018-05-26T20:50:56.889Z,7.85
2018-05-26T20:53:23.848Z,8.47
2018-05-26T20:55:57.830Z,8.30
2018-05-26T20:58:24.423Z,7.93
2018-05-26T21:00:51.029Z,12.67
2018-05-26T21:03:17.962Z,8.85
2018-05-26T21:05:44.574Z,7.93
2018-05-26T21:08:11.225Z,10.65
2018-05-26T21:10:37.921Z,7.90
2018-05-26T21:13:04.681Z,8.20
2018-05-26T21:15:31.309Z,8.18
2018-05-26T21:17:58.174Z,7.90
2018-05-26T21:20:24.750Z,7.90
2018-05-26T21:22:51.349Z,9.52
2018-05-26T21:25:17.953Z,9.77
2018-05-26T21:27:44.921Z,9.88
2018-05-26T21:30:11.573Z,8.35
2018-05-26T21:32:38.511Z,8.55
2018-05-26T21:35:05.140Z,7.70
2018-05-26T21:37:31.746Z,6.70
2018-05-26T21:39:58.313Z,7.28
2018-05-26T21:42:25.277Z,7.32
2018-05-26T21:44:51.865Z,6.45
2018-05-26T21:47:18.832Z,7.80
2018-05-26T21:49:45.793Z,7.75
2018-05-26T21:52:12.377Z,8.18
2018-05-26T21:54:38.970Z,8.60
2018-05-26T21:57:05.529Z,9.15
2018-05-26T21:59:32.138Z,8.43
2018-05-26T22:01:59.121Z,8.88
2018-05-26T22:04:25.685Z,10.40
2018-05-26T22:06:52.265Z,10.90
2018-05-26T22:09:18.836Z,13.37
2018-05-26T22:11:45.449Z,9.60
2018-05-26T22:14:12.471Z,10.90
2018-05-26T22:16:39.033Z,8.98
2018-05-26T22:19:05.653Z,8.77
2018-05-26T22:21:32.209Z,9.32
2018-05-26T22:23:58.804Z,9.57
2018-05-26T22:26:25.417Z,9.13
2018-05-26T22:28:52.345Z,8.70
2018-05-26T22:31:18.950Z,9.57
2018-05-26T22:33:45.884Z,9.70
2018-05-26T22:36:12.524Z,9.93
2018-05-26T22:38:39.113Z,9.55
2018-05-26T22:41:05.669Z,10.73
2018-05-26T22:43:32.264Z,8.57
2018-05-26T22:45:58.825Z,8.20
2018-05-26T22:48:25.787Z,9.15
2018-05-26T22:50:52.741Z,8.40
2018-05-26T22:53:19.308Z,9.70
2018-05-26T22:55:46.272Z,8.60
2018-05-26T22:58:13.208Z,8.33
2018-05-26T23:00:39.793Z,8.05
2018-05-26T23:03:06.392Z,9.23
2018-05-26T23:05:32.953Z,10.57
2018-05-26T23:07:59.545Z,8.80
2018-05-26T23:10:26.094Z,10.38
2018-05-26T23:12:52.753Z,10.03
2018-05-26T23:15:19.425Z,9.50
2018-05-26T23:17:46.026Z,9.18
2018-05-26T23:20:20.181Z,9.60
2018-05-26T23:22:47.109Z,9.40
2018-05-26T23:25:13.738Z,10.10
2018-05-26T23:27:40.341Z,9.07
2018-05-26T23:30:06.906Z,8.85
2018-05-26T23:32:33.489Z,9.18
2018-05-26T23:35:00.062Z,9.20
2018-05-26T23:37:26.652Z,10.53
2018-05-26T23:39:53.253Z,9.00
2018-05-26T23:42:20.211Z,9.50
2018-05-26T23:44:46.817Z,9.02
2018-05-26T23:47:13.369Z,8.40
2018-05-26T23:49:39.942Z,9.07
2018-05-26T23:52:06.529Z,12.50
2018-05-26T23:54:33.114Z,9.37
2018-05-26T23:56:59.681Z,9.50
2018-05-26T23:59:26.653Z,9.55
